Time;durP1;ratioP1;P1;durP2;ratioP2;P2;SDS_P1;SDS_P2;PMS_P1;PMS_P2;Temp;Humidity;BMP_temperature;BMP_pressure;BME280_temperature;BME280_humidity;BME280_pressure;Samples;Min_cycle;Max_cycle;Signal;HPM_P1;HPM_P2
2022/05/01 00:00:07;;;;;;;7.40;5.80;;;13.20;99.90;;;;;;4165081;28;20048;-63
2022/05/01 00:02:08;;;;;;;8.25;5.57;;;13.20;99.90;;;;;;4173035;28;20041;-63
2022/05/01 00:04:09;;;;;;;7.72;5.47;;;13.20;99.90;;;;;;4176062;28;20103;-63
2022/05/01 00:06:11;;;;;;;7.78;5.53;;;13.20;99.90;;;;;;4163491;28;20033;-64
2022/05/01 00:08:11;;;;;;;8.35;5.95;;;13.20;99.90;;;;;;4173062;28;20181;-63
2022/05/01 00:10:12;;;;;;;8.45;5.72;;;13.20;99.90;;;;;;4172420;28;20068;-63
2022/05/01 00:12:12;;;;;;;11.98;5.75;;;13.20;99.90;;;;;;4170899;28;20492;-63
2022/05/01 00:14:14;;;;;;;8.25;5.55;;;13.20;99.90;;;;;;4170888;28;20515;-63
2022/05/01 00:16:15;;;;;;;8.23;5.65;;;13.20;99.90;;;;;;4168257;28;20040;-63
2022/05/01 00:18:16;;;;;;;9.05;5.72;;;13.20;99.90;;;;;;4171865;28;20037;-63
2022/05/01 00:20:16;;;;;;;11.85;6.75;;;13.20;99.90;;;;;;4164838;28;20037;-63
2022/05/01 00:22:17;;;;;;;7.20;5.97;;;13.20;99.90;;;;;;4171391;28;20049;-63
2022/05/01 00:24:18;;;;;;;10.93;6.60;;;13.10;99.90;;;;;;4172137;28;20056;-63
2022/05/01 00:26:18;;;;;;;8.18;5.90;;;13.10;99.90;;;;;;4172104;28;20528;-63
2022/05/01 00:28:19;;;;;;;8.82;6.40;;;13.10;99.90;;;;;;4172756;28;20492;-63
2022/05/01 00:30:20;;;;;;;9.20;6.72;;;13.10;99.90;;;;;;4174733;28;20382;-62
2022/05/01 00:32:20;;;;;;;7.68;6.07;;;13.10;99.90;;;;;;4174008;28;20415;-63
2022/05/01 00:36:40;;;;;;;9.43;5.90;;;13.10;99.90;;;;;;4171545;28;20029;-62
2022/05/01 00:38:41;;;;;;;9.25;6.82;;;13.10;99.90;;;;;;4164888;28;20060;-62
2022/05/01 00:40:41;;;;;;;8.07;6.40;;;13.10;99.90;;;;;;4172714;28;20069;-63
2022/05/01 00:42:42;;;;;;;7.53;6.07;;;13.10;99.90;;;;;;4166735;28;20033;-63
2022/05/01 00:44:42;;;;;;;8.82;5.85;;;13.10;99.90;;;;;;4163669;28;20112;-63
2022/05/01 00:46:50;;;;;;;10.35;7.25;;;13.10;99.90;;;;;;4171330;28;20041;-63
2022/05/01 00:48:52;;;;;;;12.85;7.72;;;13.10;99.90;;;;;;4174437;28;20059;-63
2022/05/01 00:50:53;;;;;;;11.03;7.43;;;13.00;99.90;;;;;;4169114;28;20029;-63
2022/05/01 00:52:54;;;;;;;10.88;7.35;;;13.00;99.90;;;;;;4168421;28;20022;-63
2022/05/01 00:54:54;;;;;;;10.20;7.15;;;13.00;99.90;;;;;;4169247;28;20021;-63
2022/05/01 00:56:59;;;;;;;10.23;7.05;;;13.00;99.90;;;;;;4166595;28;20063;-63
2022/05/01 00:59:00;;;;;;;9.65;6.90;;;12.90;99.90;;;;;;4172093;28;20045;-63
2022/05/01 01:01:01;;;;;;;10.32;7.35;;;13.00;99.90;;;;;;4166130;28;20037;-63
2022/05/01 01:03:02;;;;;;;11.57;7.75;;;13.00;99.90;;;;;;4167782;28;20030;-63
2022/05/01 01:05:05;;;;;;;9.25;6.85;;;12.90;99.90;;;;;;4171188;28;20056;-65
2022/05/01 01:07:05;;;;;;;8.73;6.65;;;12.90;99.90;;;;;;4168183;28;20032;-63
2022/05/01 01:09:06;;;;;;;9.35;7.15;;;13.00;99.90;;;;;;4171973;28;20060;-63
2022/05/01 01:11:07;;;;;;;9.43;7.43;;;12.90;99.90;;;;;;4169313;28;20037;-64
2022/05/01 01:13:07;;;;;;;9.75;7.00;;;12.90;99.90;;;;;;4172972;28;20048;-63
2022/05/01 01:15:09;;;;;;;8.52;6.43;;;12.90;99.90;;;;;;4172315;28;20032;-63
2022/05/01 01:17:11;;;;;;;8.93;7.13;;;12.90;99.90;;;;;;4171396;28;20033;-65
2022/05/01 01:19:11;;;;;;;11.65;8.32;;;12.90;99.90;;;;;;4172900;28;20036;-63
2022/05/01 01:21:12;;;;;;;10.73;7.47;;;12.90;99.90;;;;;;4167495;28;20107;-64
2022/05/01 01:23:13;;;;;;;12.38;7.53;;;12.90;99.90;;;;;;4176623;28;20472;-63
2022/05/01 01:25:17;;;;;;;10.20;7.03;;;12.90;99.90;;;;;;4167248;28;20408;-63
2022/05/01 01:27:18;;;;;;;13.05;7.32;;;12.80;99.90;;;;;;4167654;28;20171;-63
2022/05/01 01:31:42;;;;;;;9.07;6.88;;;12.80;99.90;;;;;;4168850;28;20366;-63
2022/05/01 01:33:43;;;;;;;13.38;7.45;;;12.80;99.90;;;;;;4167315;28;20060;-63
2022/05/01 01:35:47;;;;;;;9.35;6.47;;;12.80;99.90;;;;;;4167131;28;20044;-63
2022/05/01 01:37:49;;;;;;;11.77;8.02;;;12.80;99.90;;;;;;4169545;28;20025;-63
2022/05/01 01:39:52;;;;;;;11.48;7.63;;;12.80;99.90;;;;;;4168489;28;20076;-63
2022/05/01 01:41:55;;;;;;;12.52;7.78;;;12.80;99.90;;;;;;4171727;28;20045;-63
2022/05/01 01:43:57;;;;;;;11.80;7.60;;;12.70;99.90;;;;;;4165885;28;20029;-63
2022/05/01 01:45:57;;;;;;;11.45;8.15;;;12.80;99.90;;;;;;4166688;28;20042;-63
2022/05/01 01:48:16;;;;;;;11.55;8.25;;;12.70;99.90;;;;;;4167658;28;20112;-63
2022/05/01 01:50:17;;;;;;;11.50;7.82;;;12.70;99.90;;;;;;4170590;28;20033;-63
2022/05/01 01:52:18;;;;;;;8.98;7.32;;;12.70;99.90;;;;;;4171666;28;20036;-63
2022/05/01 01:54:19;;;;;;;10.15;7.13;;;12.70;99.90;;;;;;4171080;28;20398;-63
2022/05/01 01:56:19;;;;;;;9.20;7.18;;;12.70;99.90;;;;;;4168477;28;20053;-63
2022/05/01 01:58:20;;;;;;;9.95;7.20;;;12.70;99.90;;;;;;4167241;28;20044;-63
2022/05/01 02:00:21;;;;;;;9.35;6.60;;;12.70;99.90;;;;;;4167291;28;20030;-63
2022/05/01 02:02:21;;;;;;;10.07;7.03;;;12.70;99.90;;;;;;4172907;28;20044;-63
2022/05/01 02:04:22;;;;;;;9.48;7.25;;;12.70;99.90;;;;;;4171756;28;20124;-64
2022/05/01 02:06:22;;;;;;;11.77;7.70;;;12.80;99.90;;;;;;4169589;28;20037;-62
2022/05/01 02:08:23;;;;;;;8.55;6.95;;;12.80;99.90;;;;;;4169236;28;20033;-63
2022/05/01 02:10:24;;;;;;;10.07;7.38;;;12.80;99.90;;;;;;4167176;28;20048;-63
2022/05/01 02:12:25;;;;;;;8.80;6.82;;;12.80;99.90;;;;;;4173700;28;20037;-63
2022/05/01 02:14:26;;;;;;;9.32;7.18;;;12.80;99.90;;;;;;4166825;28;20029;-62
2022/05/01 02:16:27;;;;;;;9.43;7.35;;;12.80;99.90;;;;;;4168703;28;20400;-63
2022/05/01 02:21:43;;;;;;;10.90;7.38;;;12.80;99.90;;;;;;4330794;22;20051;-91
2022/05/01 02:23:43;;;;;;;11.13;8.35;;;12.70;99.90;;;;;;4126539;28;20535;-91
2022/05/01 02:25:44;;;;;;;10.00;7.65;;;12.80;99.90;;;;;;4108409;28;20031;-91
2022/05/01 02:27:44;;;;;;;10.88;7.72;;;12.70;99.90;;;;;;4143794;28;20042;-91
2022/05/01 02:29:45;;;;;;;9.68;7.30;;;12.70;99.90;;;;;;4127648;28;20110;-91
2022/05/01 02:31:46;;;;;;;9.70;8.02;;;12.70;99.90;;;;;;4126741;28;20037;-92
2022/05/01 02:33:47;;;;;;;11.07;7.80;;;12.70;99.90;;;;;;4127689;28;20053;-91
2022/05/01 02:35:48;;;;;;;10.13;7.43;;;12.70;99.90;;;;;;4127410;28;20117;-92
2022/05/01 02:37:48;;;;;;;13.23;8.98;;;12.60;99.90;;;;;;4127551;28;20460;-91
2022/05/01 02:39:49;;;;;;;10.63;7.22;;;12.60;99.90;;;;;;4127832;28;20055;-92
2022/05/01 02:41:50;;;;;;;13.13;9.05;;;12.60;99.90;;;;;;4135303;28;20120;-91
2022/05/01 02:43:51;;;;;;;19.10;9.85;;;12.60;99.90;;;;;;4127886;28;20034;-91
2022/05/01 02:45:51;;;;;;;12.77;9.40;;;12.60;99.90;;;;;;4127116;28;20041;-91
2022/05/01 02:47:52;;;;;;;13.68;9.05;;;12.50;99.90;;;;;;4128088;28;20042;-91
2022/05/01 02:49:52;;;;;;;14.48;8.88;;;12.50;99.90;;;;;;4129970;28;20489;-91
2022/05/01 02:51:53;;;;;;;16.20;10.35;;;12.40;99.90;;;;;;4130434;28;20034;-91
2022/05/01 02:53:55;;;;;;;11.98;8.75;;;12.40;99.90;;;;;;4144018;28;20037;-91
2022/05/01 02:55:55;;;;;;;11.68;8.25;;;12.40;99.90;;;;;;4114126;28;20031;-91
2022/05/01 02:57:56;;;;;;;10.48;7.95;;;12.40;99.90;;;;;;4129151;28;20058;-91
2022/05/01 02:59:56;;;;;;;11.73;8.48;;;12.40;99.90;;;;;;4140968;28;20031;-92
2022/05/01 03:01:57;;;;;;;12.13;8.50;;;12.40;99.90;;;;;;4154446;28;20030;-92
2022/05/01 03:03:58;;;;;;;12.63;8.93;;;12.40;99.90;;;;;;4138720;28;20034;-91
2022/05/01 03:05:59;;;;;;;12.70;8.25;;;12.40;99.90;;;;;;4139854;28;20037;-91
2022/05/01 03:07:59;;;;;;;12.02;8.55;;;12.40;99.90;;;;;;4122485;28;20050;-92
2022/05/01 03:10:00;;;;;;;11.57;8.18;;;12.40;99.90;;;;;;4131425;28;20026;-92
2022/05/01 03:12:01;;;;;;;13.57;9.40;;;12.40;99.90;;;;;;4139623;28;20058;-91
2022/05/01 03:14:02;;;;;;;11.40;8.05;;;12.40;99.90;;;;;;4136640;28;20032;-91
2022/05/01 03:16:03;;;;;;;12.02;8.40;;;12.40;99.90;;;;;;4126058;28;20050;-92
2022/05/01 03:22:47;;;;;;;11.27;8.40;;;12.40;99.90;;;;;;4132534;28;20095;-91
2022/05/01 03:24:48;;;;;;;13.70;8.50;;;12.40;99.90;;;;;;4143003;28;20042;-91
2022/05/01 03:26:48;;;;;;;11.95;8.50;;;12.30;99.90;;;;;;4144862;28;20094;-91
2022/05/01 03:28:49;;;;;;;10.77;8.13;;;12.30;99.90;;;;;;4141465;28;20034;-91
2022/05/01 03:30:50;;;;;;;12.45;8.60;;;12.30;99.90;;;;;;4145070;28;20019;-91
2022/05/01 03:32:52;;;;;;;12.93;9.15;;;12.30;99.90;;;;;;4146762;28;20046;-91
2022/05/01 03:34:53;;;;;;;11.82;8.25;;;12.30;99.90;;;;;;4141498;28;20038;-91
2022/05/01 03:36:55;;;;;;;11.30;7.70;;;12.30;99.90;;;;;;4138313;28;20062;-92
2022/05/01 03:38:59;;;;;;;13.05;9.15;;;12.30;99.90;;;;;;4147612;28;20078;-91
2022/05/01 03:40:59;;;;;;;;;;;12.30;99.90;;;;;;4137665;28;20085;-92
2022/05/01 03:43:00;;;;;;;9.93;7.40;;;12.30;99.90;;;;;;4146943;28;19910;-91
2022/05/01 03:45:00;;;;;;;10.50;8.38;;;12.30;99.90;;;;;;4146844;28;20058;-91
2022/05/01 03:47:01;;;;;;;12.07;9.32;;;12.30;99.90;;;;;;4129689;28;20047;-91
2022/05/01 03:49:03;;;;;;;12.85;9.27;;;12.30;99.90;;;;;;4147596;28;20035;-91
2022/05/01 03:51:03;;;;;;;14.43;8.98;;;12.20;99.90;;;;;;4126511;28;20034;-91
2022/05/01 03:53:05;;;;;;;14.07;9.52;;;12.20;99.90;;;;;;4147746;28;20102;-92
2022/05/01 03:55:07;;;;;;;12.23;9.40;;;12.20;99.90;;;;;;4128864;28;20066;-93
2022/05/01 03:57:09;;;;;;;10.98;8.25;;;12.10;99.90;;;;;;4114308;28;20050;-91
2022/05/01 03:59:10;;;;;;;14.07;9.23;;;12.20;99.90;;;;;;4141584;28;20040;-91
2022/05/01 04:01:10;;;;;;;11.63;8.45;;;12.10;99.90;;;;;;4119014;28;20015;-91
2022/05/01 04:03:15;;;;;;;14.23;8.82;;;12.10;99.90;;;;;;4163518;28;20038;-91
2022/05/01 04:05:16;;;;;;;13.57;9.27;;;12.20;99.90;;;;;;4162299;28;20034;-91
2022/05/01 04:07:19;;;;;;;12.65;8.98;;;12.20;99.90;;;;;;4156838;28;20037;-91
2022/05/01 04:09:24;;;;;;;12.93;8.98;;;12.20;99.90;;;;;;4132098;28;20069;-91
2022/05/01 04:11:25;;;;;;;13.45;9.77;;;12.20;99.90;;;;;;4131327;28;20046;-91
2022/05/01 04:13:26;;;;;;;12.50;8.98;;;12.20;99.90;;;;;;4144062;28;20017;-92
2022/05/01 04:15:26;;;;;;;11.50;8.32;;;12.20;99.90;;;;;;4163202;28;20038;-91
2022/05/01 04:17:28;;;;;;;13.85;9.15;;;12.20;99.90;;;;;;4151128;28;20026;-91
2022/05/01 04:19:30;;;;;;;11.38;8.60;;;12.20;99.90;;;;;;4144732;28;21438;-91
2022/05/01 04:21:31;;;;;;;10.47;8.30;;;12.20;99.90;;;;;;4128283;28;20030;-91
2022/05/01 04:23:32;;;;;;;11.65;8.13;;;12.20;99.90;;;;;;4146252;28;20274;-92
2022/05/01 04:25:34;;;;;;;12.60;8.68;;;12.20;99.90;;;;;;4146734;28;20022;-92
2022/05/01 04:27:34;;;;;;;10.57;8.20;;;12.20;99.90;;;;;;4147811;28;20022;-92
2022/05/01 04:29:39;;;;;;;10.40;8.32;;;12.30;99.90;;;;;;4146830;28;20069;-90
2022/05/01 04:31:39;;;;;;;11.55;8.02;;;12.30;99.90;;;;;;4130472;28;20035;-90
2022/05/01 04:33:40;;;;;;;13.57;9.63;;;12.30;99.90;;;;;;4155915;28;20081;-90
2022/05/01 04:35:43;;;;;;;12.05;8.63;;;12.30;99.90;;;;;;4146156;28;20094;-91
2022/05/01 04:37:43;;;;;;;13.30;7.60;;;12.30;99.90;;;;;;4146318;28;20034;-91
2022/05/01 04:39:44;;;;;;;13.77;9.00;;;12.30;99.90;;;;;;4141810;28;20031;-91
2022/05/01 04:41:46;;;;;;;13.07;8.35;;;12.40;99.90;;;;;;4141428;28;20034;-91
2022/05/01 04:43:47;;;;;;;10.82;7.90;;;12.40;99.90;;;;;;4157251;28;20037;-91
2022/05/01 04:45:50;;;;;;;11.77;8.38;;;12.40;99.90;;;;;;4132617;28;20035;-91
2022/05/01 04:47:51;;;;;;;11.65;8.82;;;12.40;99.90;;;;;;4140643;28;20102;-92
2022/05/01 04:49:52;;;;;;;12.35;8.77;;;12.40;99.90;;;;;;4156726;28;20022;-91
2022/05/01 04:51:56;;;;;;;12.98;9.27;;;12.40;99.90;;;;;;4128976;28;20027;-92
2022/05/01 04:53:59;;;;;;;13.90;8.45;;;12.40;99.90;;;;;;4140149;28;20038;-91
2022/05/01 04:57:04;;;;;;;12.77;8.63;;;12.40;99.90;;;;;;4128434;28;20049;-91
2022/05/01 04:58:21;;;;;;;11.80;8.50;;;12.40;99.90;;;;;;4153416;28;20091;-92
2022/05/01 05:00:22;;;;;;;11.43;8.43;;;12.40;99.90;;;;;;4129886;28;20069;-91
2022/05/01 05:02:22;;;;;;;13.63;8.90;;;12.40;99.90;;;;;;4146133;28;20038;-91
2022/05/01 05:04:27;;;;;;;11.38;8.10;;;12.40;99.90;;;;;;4162388;28;20053;-92
2022/05/01 05:06:28;;;;;;;12.13;8.85;;;12.40;99.90;;;;;;4113747;28;20035;-91
2022/05/01 05:10:48;;;;;;;10.52;8.27;;;12.40;99.90;;;;;;4153418;28;20040;-90
2022/05/01 05:12:49;;;;;;;10.88;7.90;;;12.40;99.90;;;;;;4129485;28;20022;-91
2022/05/01 05:14:52;;;;;;;12.18;8.70;;;12.40;99.90;;;;;;4145913;28;20077;-91
2022/05/01 05:16:54;;;;;;;12.90;9.32;;;12.40;99.90;;;;;;4134523;28;20046;-91
2022/05/01 05:18:55;;;;;;;14.07;8.52;;;12.40;99.90;;;;;;4139605;28;20042;-92
2022/05/01 05:20:56;;;;;;;12.57;8.77;;;12.40;99.90;;;;;;4146244;28;20038;-91
2022/05/01 05:22:58;;;;;;;12.25;8.40;;;12.50;99.90;;;;;;4122868;28;20059;-91
2022/05/01 05:24:59;;;;;;;11.35;8.63;;;12.40;99.90;;;;;;4158849;28;20038;-91
2022/05/01 05:27:00;;;;;;;11.30;8.25;;;12.40;99.90;;;;;;4122648;28;20042;-92
2022/05/01 05:29:01;;;;;;;17.08;9.52;;;12.40;99.90;;;;;;4138834;28;20035;-91
2022/05/01 05:31:01;;;;;;;11.60;9.27;;;12.40;99.90;;;;;;4134327;28;20042;-92
2022/05/01 05:33:05;;;;;;;13.30;9.73;;;12.30;99.90;;;;;;4157802;28;20034;-91
2022/05/01 05:35:06;;;;;;;12.90;9.70;;;12.30;99.90;;;;;;4126109;28;20031;-90
2022/05/01 05:37:07;;;;;;;13.32;9.15;;;12.30;99.90;;;;;;4130094;28;20093;-91
2022/05/01 05:39:07;;;;;;;13.43;9.48;;;12.30;99.90;;;;;;4289638;23;20001;-63
2022/05/01 05:41:08;;;;;;;10.98;8.52;;;12.30;99.90;;;;;;4158060;28;20041;-62
2022/05/01 05:43:09;;;;;;;12.63;9.07;;;12.40;99.90;;;;;;4157030;28;20033;-61
2022/05/01 05:45:12;;;;;;;14.77;9.50;;;12.40;99.90;;;;;;4154528;28;20053;-62
2022/05/01 05:47:12;;;;;;;12.75;8.50;;;12.50;99.90;;;;;;4156258;28;20495;-62
2022/05/01 05:49:13;;;;;;;12.20;8.48;;;12.50;99.90;;;;;;4157837;28;20033;-62
2022/05/01 05:51:13;;;;;;;13.20;9.05;;;12.50;99.90;;;;;;4149140;28;20097;-62
2022/05/01 05:53:14;;;;;;;13.35;9.07;;;12.50;99.90;;;;;;4156466;28;20052;-61
2022/05/01 05:55:14;;;;;;;14.50;9.48;;;12.60;99.90;;;;;;4155462;28;20128;-61
2022/05/01 05:57:15;;;;;;;12.05;9.25;;;12.60;99.90;;;;;;4150764;28;20037;-62
2022/05/01 05:59:16;;;;;;;13.88;10.02;;;12.60;99.90;;;;;;4153306;28;20026;-62
2022/05/01 06:01:16;;;;;;;12.55;9.10;;;12.60;99.90;;;;;;4150635;28;20089;-61
2022/05/01 06:03:19;;;;;;;12.38;8.95;;;12.60;99.90;;;;;;4154856;28;20396;-62
2022/05/01 06:05:19;;;;;;;13.50;10.18;;;12.60;99.90;;;;;;4162908;28;20029;-62
2022/05/01 06:07:20;;;;;;;12.15;8.48;;;12.70;99.90;;;;;;4155316;28;20095;-62
2022/05/01 06:09:21;;;;;;;12.43;9.18;;;12.70;99.90;;;;;;4157016;28;20156;-62
2022/05/01 06:11:21;;;;;;;10.68;8.40;;;12.70;99.90;;;;;;4154267;28;20122;-62
2022/05/01 06:13:22;;;;;;;11.70;8.70;;;12.80;99.90;;;;;;4153517;28;20041;-62
2022/05/01 06:15:22;;;;;;;14.50;9.73;;;12.80;99.90;;;;;;4152395;28;20065;-62
2022/05/01 06:17:23;;;;;;;12.88;9.13;;;12.80;99.90;;;;;;4150600;28;20049;-62
2022/05/01 06:19:23;;;;;;;12.23;8.45;;;12.80;99.90;;;;;;4155370;28;20042;-60
2022/05/01 06:21:24;;;;;;;13.90;8.45;;;12.90;99.90;;;;;;4155932;28;20041;-62
2022/05/01 06:23:25;;;;;;;13.40;9.68;;;12.90;99.90;;;;;;4157281;28;20038;-62
2022/05/01 06:25:26;;;;;;;13.30;9.13;;;12.90;99.90;;;;;;4150538;28;20585;-62
2022/05/01 06:27:26;;;;;;;10.85;8.55;;;13.00;99.90;;;;;;4157054;28;20091;-62
2022/05/01 06:29:27;;;;;;;12.65;8.93;;;13.00;99.90;;;;;;4155394;28;20045;-62
2022/05/01 06:31:28;;;;;;;12.10;8.80;;;13.00;99.90;;;;;;4158283;28;20034;-62
2022/05/01 06:33:30;;;;;;;12.13;9.15;;;13.10;99.90;;;;;;4154291;28;20030;-62
2022/05/01 06:35:31;;;;;;;13.07;8.90;;;13.10;99.90;;;;;;4154651;28;20120;-62
2022/05/01 06:37:33;;;;;;;15.98;11.13;;;13.10;99.90;;;;;;4155337;28;20049;-62
2022/05/01 06:39:34;;;;;;;13.60;9.35;;;13.10;99.90;;;;;;4158292;28;20416;-62
2022/05/01 06:41:35;;;;;;;12.43;9.38;;;13.20;99.90;;;;;;4153440;28;20038;-62
2022/05/01 06:43:35;;;;;;;11.77;8.98;;;13.20;99.90;;;;;;4154285;28;20034;-64
2022/05/01 06:45:36;;;;;;;11.82;8.20;;;13.30;99.90;;;;;;4154934;28;20038;-63
2022/05/01 06:47:37;;;;;;;11.27;8.45;;;13.30;99.90;;;;;;4148141;28;20073;-63
2022/05/01 06:49:37;;;;;;;16.10;10.82;;;13.30;99.90;;;;;;4152115;28;20038;-63
2022/05/01 06:51:38;;;;;;;14.27;9.38;;;13.30;99.90;;;;;;4153082;28;20396;-63
2022/05/01 06:53:39;;;;;;;10.13;8.65;;;13.30;99.90;;;;;;4152527;28;20373;-62
2022/05/01 06:55:39;;;;;;;11.68;8.40;;;13.40;99.90;;;;;;4154343;28;20091;-62
2022/05/01 06:57:40;;;;;;;11.00;8.13;;;13.40;99.90;;;;;;4154165;28;20038;-62
2022/05/01 06:59:40;;;;;;;11.63;8.25;;;13.50;99.90;;;;;;4152383;28;20616;-63
2022/05/01 07:01:41;;;;;;;10.90;8.63;;;13.50;99.90;;;;;;4157795;28;20033;-64
2022/05/01 07:03:42;;;;;;;12.13;8.43;;;13.50;99.90;;;;;;4151651;28;20389;-64
2022/05/01 07:05:42;;;;;;;10.25;7.60;;;13.60;99.90;;;;;;4156800;28;20039;-62
2022/05/01 07:07:43;;;;;;;12.93;9.20;;;13.60;99.90;;;;;;4156833;28;20045;-62
2022/05/01 07:09:43;;;;;;;13.48;8.90;;;13.60;99.90;;;;;;4154215;28;20468;-62
2022/05/01 07:11:44;;;;;;;11.88;8.38;;;13.70;99.90;;;;;;4153612;28;20046;-62
2022/05/01 07:13:45;;;;;;;10.18;7.43;;;13.70;99.90;;;;;;4157890;28;20095;-63
2022/05/01 07:15:45;;;;;;;12.68;8.48;;;13.80;99.90;;;;;;4155726;28;20033;-62
2022/05/01 07:17:46;;;;;;;15.55;9.98;;;13.80;99.90;;;;;;4158290;28;20550;-63
2022/05/01 07:19:46;;;;;;;15.00;9.73;;;13.90;99.90;;;;;;4159574;28;20065;-62
2022/05/01 07:21:47;;;;;;;13.98;8.63;;;13.90;99.90;;;;;;4153189;28;20045;-62
2022/05/01 07:23:47;;;;;;;12.85;9.43;;;14.00;99.90;;;;;;4156318;28;20033;-63
2022/05/01 07:25:48;;;;;;;11.93;8.32;;;14.00;99.90;;;;;;4151518;28;20082;-62
2022/05/01 07:27:49;;;;;;;11.50;8.43;;;14.00;99.90;;;;;;4156634;28;20042;-62
2022/05/01 07:29:49;;;;;;;11.30;8.38;;;14.10;99.90;;;;;;4159178;28;20038;-62
2022/05/01 07:31:50;;;;;;;11.90;8.40;;;14.10;99.90;;;;;;4156832;28;20109;-62
2022/05/01 07:33:51;;;;;;;12.10;9.15;;;14.20;99.90;;;;;;4154036;28;20049;-61
2022/05/01 07:35:51;;;;;;;13.88;9.18;;;14.20;99.90;;;;;;4147884;28;20124;-64
2022/05/01 07:37:52;;;;;;;12.20;9.57;;;14.20;99.90;;;;;;4162298;28;20538;-64
2022/05/01 07:39:54;;;;;;;13.40;9.20;;;14.20;99.90;;;;;;4157340;28;20041;-64
2022/05/01 07:41:54;;;;;;;12.68;7.93;;;14.10;99.90;;;;;;4154112;28;20388;-63
2022/05/01 07:43:55;;;;;;;13.40;7.97;;;14.10;99.90;;;;;;4156270;28;20042;-62
2022/05/01 07:45:56;;;;;;;14.05;8.60;;;14.20;99.90;;;;;;4158240;28;20065;-63
2022/05/01 07:47:58;;;;;;;17.35;9.48;;;14.10;99.90;;;;;;4152123;28;20117;-62
2022/05/01 07:49:59;;;;;;;12.45;9.05;;;14.20;99.90;;;;;;4156436;28;20392;-62
2022/05/01 07:51:59;;;;;;;12.88;8.73;;;14.20;99.90;;;;;;4155926;28;20038;-63
2022/05/01 07:54:01;;;;;;;10.20;7.65;;;14.20;99.90;;;;;;4155061;28;20113;-62
2022/05/01 07:56:01;;;;;;;11.65;8.05;;;14.20;99.90;;;;;;4158493;28;20120;-62
2022/05/01 07:58:02;;;;;;;12.30;9.40;;;14.30;99.90;;;;;;4157364;28;20065;-62
2022/05/01 08:00:04;;;;;;;9.60;7.90;;;14.20;99.90;;;;;;4161691;28;20137;-64
2022/05/01 08:02:05;;;;;;;9.10;7.80;;;14.20;99.90;;;;;;4151252;28;20073;-62
2022/05/01 08:06:25;;;;;;;10.02;7.75;;;14.30;99.90;;;;;;4155304;28;20045;-62
2022/05/01 08:08:26;;;;;;;11.05;8.00;;;14.30;99.90;;;;;;4154786;28;20056;-63
2022/05/01 08:10:27;;;;;;;12.10;7.15;;;14.30;99.90;;;;;;4154288;28;20393;-61
2022/05/01 08:12:27;;;;;;;10.43;7.78;;;14.40;99.90;;;;;;4152267;28;20038;-62
2022/05/01 08:14:28;;;;;;;14.75;8.50;;;14.40;99.90;;;;;;4152602;28;20041;-63
2022/05/01 08:16:29;;;;;;;10.27;7.75;;;14.40;99.90;;;;;;4155825;28;20040;-63
2022/05/01 08:23:09;;;;;;;9.20;6.80;;;14.50;99.90;;;;;;4155632;28;20487;-63
2022/05/01 08:25:10;;;;;;;11.55;7.47;;;14.50;99.90;;;;;;4160387;28;20045;-63
2022/05/01 08:27:10;;;;;;;9.30;6.82;;;14.60;99.90;;;;;;4160408;28;20061;-63
2022/05/01 08:29:11;;;;;;;8.98;6.40;;;14.60;99.90;;;;;;4155197;28;20540;-63
2022/05/01 08:31:13;;;;;;;9.10;6.63;;;14.70;99.90;;;;;;4152222;28;20476;-63
2022/05/01 08:33:13;;;;;;;11.15;7.97;;;14.70;99.90;;;;;;4156888;28;20499;-63
2022/05/01 08:35:14;;;;;;;9.30;6.90;;;14.70;99.90;;;;;;4153703;28;20038;-62
2022/05/01 08:37:15;;;;;;;11.00;7.40;;;14.80;99.90;;;;;;4155490;28;20055;-63
2022/05/01 08:39:15;;;;;;;8.52;5.68;;;14.80;99.90;;;;;;4154913;28;20469;-64
2022/05/01 08:41:16;;;;;;;9.95;6.88;;;14.80;99.90;;;;;;4151462;28;20052;-63
2022/05/01 08:43:18;;;;;;;8.05;6.28;;;14.90;99.90;;;;;;4157219;28;20128;-63
2022/05/01 08:45:26;;;;;;;10.55;6.38;;;14.90;99.90;;;;;;4157080;28;20049;-63
2022/05/01 08:47:40;;;;;;;9.02;6.07;;;15.00;99.90;;;;;;4154090;28;20111;-63
2022/05/01 08:49:42;;;;;;;10.80;6.38;;;15.00;99.90;;;;;;4157114;28;20041;-63
2022/05/01 08:51:43;;;;;;;13.15;8.10;;;15.00;99.90;;;;;;4152933;28;20037;-63
2022/05/01 08:53:44;;;;;;;10.93;7.05;;;15.00;99.90;;;;;;4156441;28;20087;-64
2022/05/01 08:55:47;;;;;;;8.75;6.40;;;15.00;99.90;;;;;;4154765;28;20037;-63
2022/05/01 08:57:48;;;;;;;10.00;7.05;;;15.00;99.90;;;;;;4156118;28;20045;-63
2022/05/01 08:59:53;;;;;;;8.25;6.53;;;15.00;99.90;;;;;;4151245;28;20479;-63
2022/05/01 09:01:54;;;;;;;7.32;5.78;;;15.10;99.90;;;;;;4149219;28;20137;-62
2022/05/01 09:03:55;;;;;;;8.18;5.72;;;15.20;99.90;;;;;;4153589;28;20095;-63
2022/05/01 09:05:56;;;;;;;8.98;6.18;;;15.30;99.90;;;;;;4156698;28;21817;-62
2022/05/01 09:07:57;;;;;;;8.52;6.20;;;15.20;99.90;;;;;;4154357;28;20050;-63
2022/05/01 09:09:58;;;;;;;8.40;6.20;;;15.30;99.90;;;;;;4154742;28;20041;-62
2022/05/01 09:14:19;;;;;;;8.35;6.55;;;15.30;98.70;;;;;;4151726;28;20068;-63
2022/05/01 09:16:20;;;;;;;7.30;5.97;;;15.40;99.90;;;;;;4156101;28;20061;-63
2022/05/01 09:18:21;;;;;;;9.50;6.00;;;15.30;97.10;;;;;;4155934;28;20041;-62
2022/05/01 09:20:22;;;;;;;7.57;6.10;;;15.10;97.30;;;;;;4156629;28;20037;-63
2022/05/01 09:22:22;;;;;;;7.85;5.20;;;15.30;99.50;;;;;;4154273;28;20092;-62
2022/05/01 09:24:27;;;;;;;7.43;5.70;;;15.40;99.90;;;;;;4159162;28;20034;-62
2022/05/01 09:26:36;;;;;;;6.03;5.10;;;15.40;99.90;;;;;;4155932;28;20495;-63
2022/05/01 09:28:47;;;;;;;10.15;6.10;;;15.50;99.90;;;;;;4156070;28;20193;-64
2022/05/01 09:30:47;;;;;;;7.97;5.18;;;15.30;97.50;;;;;;4154988;28;20037;-63
2022/05/01 09:32:49;;;;;;;5.78;4.45;;;15.50;97.10;;;;;;4160376;28;20096;-63
2022/05/01 09:34:50;;;;;;;6.35;5.00;;;15.60;99.30;;;;;;4156251;28;20369;-63
2022/05/01 09:36:51;;;;;;;6.38;4.82;;;15.60;97.10;;;;;;4155264;28;20034;-63
2022/05/01 09:39:03;;;;;;;6.15;4.88;;;15.70;96.30;;;;;;4155036;28;20160;-62
2022/05/01 09:41:13;;;;;;;7.53;5.88;;;15.70;97.20;;;;;;4151176;28;20049;-63
2022/05/01 09:43:41;;;;;;;8.80;5.88;;;15.80;97.50;;;;;;4152164;28;20037;-64
2022/05/01 09:45:42;;;;;;;6.75;4.80;;;15.80;98.40;;;;;;4154609;28;20396;-61
2022/05/01 09:47:44;;;;;;;6.35;4.53;;;15.90;98.30;;;;;;4156768;28;20046;-63
2022/05/01 09:49:49;;;;;;;6.80;5.60;;;16.00;98.20;;;;;;4157418;28;20505;-63
2022/05/01 09:51:56;;;;;;;13.15;5.63;;;16.10;96.50;;;;;;4152223;28;20476;-62
2022/05/01 09:53:58;;;;;;;8.23;5.82;;;16.10;97.50;;;;;;4158754;28;20069;-63
2022/05/01 09:56:01;;;;;;;10.95;5.70;;;16.20;96.90;;;;;;4156832;28;20041;-61
2022/05/01 09:58:14;;;;;;;8.57;6.05;;;16.30;96.10;;;;;;4152113;28;20092;-62
2022/05/01 10:00:35;;;;;;;8.32;5.82;;;16.30;96.10;;;;;;4152774;28;20100;-63
2022/05/01 10:02:35;;;;;;;10.00;6.40;;;16.30;95.70;;;;;;4153011;28;20525;-62
2022/05/01 10:04:37;;;;;;;9.13;5.65;;;16.30;96.50;;;;;;4153995;28;20033;-62
2022/05/01 10:06:38;;;;;;;11.35;6.47;;;16.30;97.90;;;;;;4156878;28;20072;-63
2022/05/01 10:08:40;;;;;;;11.07;7.97;;;16.40;96.30;;;;;;4155952;28;20038;-61
2022/05/01 10:10:41;;;;;;;13.32;7.45;;;16.30;96.30;;;;;;4152658;28;20520;-63
2022/05/01 10:12:46;;;;;;;11.82;6.97;;;16.30;96.20;;;;;;4158921;28;20042;-63
2022/05/01 10:14:48;;;;;;;9.55;6.45;;;16.30;96.20;;;;;;4154605;28;20060;-63
2022/05/01 10:16:50;;;;;;;8.18;5.93;;;16.30;95.70;;;;;;4155951;28;20029;-63
2022/05/01 10:18:50;;;;;;;9.00;5.95;;;16.40;95.60;;;;;;4149185;28;20030;-63
2022/05/01 10:20:52;;;;;;;7.97;6.43;;;16.40;95.30;;;;;;4154391;28;20050;-61
2022/05/01 10:22:53;;;;;;;7.40;6.10;;;16.50;95.50;;;;;;4159919;28;20168;-63
2022/05/01 10:24:54;;;;;;;10.35;6.82;;;16.50;95.10;;;;;;4155358;28;20033;-62
2022/05/01 10:27:18;;;;;;;10.93;6.18;;;16.50;94.50;;;;;;4157023;28;20053;-63
2022/05/01 10:32:20;;;;;;;8.00;6.32;;;16.50;94.40;;;;;;4154407;28;20563;-62
2022/05/01 10:32:30;;;;;;;7.45;5.63;;;16.60;94.40;;;;;;4153655;28;20488;-63
2022/05/01 10:34:52;;;;;;;9.13;5.72;;;16.60;92.80;;;;;;4157727;28;20045;-62
2022/05/01 10:37:19;;;;;;;8.95;6.60;;;16.60;93.10;;;;;;4153313;28;20041;-63
2022/05/01 10:39:23;;;;;;;9.07;6.68;;;16.70;94.20;;;;;;4157358;28;20053;-63
2022/05/01 10:41:24;;;;;;;6.93;6.07;;;16.70;94.10;;;;;;4157709;28;20041;-63
2022/05/01 10:43:36;;;;;;;11.45;6.88;;;16.70;91.30;;;;;;4155233;28;20042;-62
2022/05/01 10:45:43;;;;;;;9.80;6.50;;;16.80;93.80;;;;;;4152645;28;20033;-62
2022/05/01 10:47:43;;;;;;;8.23;5.75;;;16.80;93.60;;;;;;4149177;28;20041;-62
2022/05/01 10:49:46;;;;;;;8.02;6.25;;;16.80;91.40;;;;;;4154267;28;20140;-63
2022/05/01 10:51:49;;;;;;;9.50;6.30;;;16.80;92.60;;;;;;4149612;28;20042;-63
2022/05/01 10:54:33;;;;;;;8.35;6.20;;;16.80;87.00;;;;;;4151130;28;20032;-64